Time;durP1;ratioP1;P1;durP2;ratioP2;P2;SDS_P1;SDS_P2;PMS_P1;PMS_P2;Temp;Humidity;BMP_temperature;BMP_pressure;BME280_temperature;BME280_humidity;BME280_pressure;Samples;Min_cycle;Max_cycle;Signal;HPM_P1;HPM_P2
2022/05/16 00:01:57;;;;;;;;;;;;;;;24.05;60.07;97978.84;4998232;28;19926;-60
2022/05/16 00:04:24;;;;;;;;;;;;;;;24.05;60.09;97981.59;5015381;28;19926;-61
2022/05/16 00:06:50;;;;;;;;;;;;;;;23.93;60.59;97981.66;5018606;28;19937;-60
2022/05/16 00:09:16;;;;;;;;;;;;;;;23.94;60.58;97978.59;5018517;28;19989;-61
2022/05/16 00:11:45;;;;;;;;;;;;;;;23.87;61.04;97983.03;5016044;28;19993;-62
2022/05/16 00:14:12;;;;;;;;;;;;;;;23.88;60.87;97984.63;5010210;28;19930;-61
2022/05/16 00:16:38;;;;;;;;;;;;;;;23.74;61.17;97978.78;5017040;28;20321;-60
2022/05/16 00:19:06;;;;;;;;;;;;;;;23.60;61.88;97974.53;5018366;28;19933;-61
2022/05/16 00:21:32;;;;;;;;;;;;;;;23.71;61.67;97972.09;5016764;28;20000;-60
2022/05/16 00:23:58;;;;;;;;;;;;;;;23.71;61.81;97979.47;5015083;28;19952;-60
2022/05/16 00:26:25;;;;;;;;;;;;;;;23.67;61.89;97976.66;5018194;28;20001;-60
2022/05/16 00:28:51;;;;;;;;;;;;;;;23.67;61.99;97970.41;5003768;28;19985;-61
2022/05/16 00:31:17;;;;;;;;;;;;;;;23.64;61.93;97980.84;5021197;28;19925;-61
2022/05/16 00:33:44;;;;;;;;;;;;;;;23.70;61.82;97970.50;5001087;28;20005;-60
2022/05/16 00:36:11;;;;;;;;;;;;;;;23.61;62.05;97976.09;5017556;28;19936;-61
2022/05/16 00:38:38;;;;;;;;;;;;;;;23.59;62.03;97978.38;5019813;28;19992;-60
2022/05/16 00:41:05;;;;;;;;;;;;;;;23.57;62.16;97967.03;5020986;28;19971;-61
2022/05/16 00:43:45;;;;;;;;;;;;;;;23.50;62.75;97961.38;5019599;28;19925;-60
2022/05/16 00:46:12;;;;;;;;;;;;;;;23.49;62.88;97973.41;5017741;28;19998;-61
2022/05/16 00:48:38;;;;;;;;;;;;;;;23.47;62.98;97961.25;5020000;28;19947;-61
2022/05/16 00:51:05;;;;;;;;;;;;;;;23.45;62.76;97972.53;5021258;28;19986;-60
2022/05/16 00:53:33;;;;;;;;;;;;;;;23.50;62.83;97964.09;5020039;28;19989;-61
2022/05/16 00:56:00;;;;;;;;;;;;;;;23.52;63.04;97955.59;5018142;28;20033;-60
2022/05/16 00:58:26;;;;;;;;;;;;;;;23.43;63.06;97963.88;5018465;28;19956;-61
2022/05/16 01:00:53;;;;;;;;;;;;;;;23.48;63.17;97952.75;5004329;28;19926;-61
2022/05/16 01:06:05;;;;;;;;;;;;;;;23.46;63.09;97956.94;5012102;28;19976;-61
2022/05/16 01:08:34;;;;;;;;;;;;;;;23.42;63.32;97959.59;5018868;28;19925;-61
2022/05/16 01:11:06;;;;;;;;;;;;;;;23.37;63.49;97957.06;5020841;28;20232;-64
2022/05/16 01:13:33;;;;;;;;;;;;;;;23.28;63.81;97958.31;5019428;28;19932;-60
2022/05/16 01:16:00;;;;;;;;;;;;;;;23.26;63.99;97953.25;5017264;28;19993;-61
2022/05/16 01:18:27;;;;;;;;;;;;;;;23.29;64.21;97966.19;5017585;28;19989;-60
2022/05/16 01:21:01;;;;;;;;;;;;;;;23.34;64.18;97962.41;5020803;28;19972;-60
2022/05/16 01:23:32;;;;;;;;;;;;;;;23.32;64.16;97962.75;5019930;28;19933;-61
2022/05/16 01:25:59;;;;;;;;;;;;;;;23.35;64.05;97967.53;5017281;28;19989;-60
2022/05/16 01:28:25;;;;;;;;;;;;;;;23.26;64.40;97966.88;5017444;28;19921;-61
2022/05/16 01:30:54;;;;;;;;;;;;;;;23.23;64.56;97967.56;5020861;28;20017;-60
2022/05/16 01:33:23;;;;;;;;;;;;;;;23.19;64.89;97961.19;5020399;28;19956;-60
2022/05/16 01:35:50;;;;;;;;;;;;;;;23.20;65.22;97962.00;5008309;28;20112;-61
2022/05/16 01:38:22;;;;;;;;;;;;;;;23.15;65.03;97960.28;5017013;28;20017;-60
2022/05/16 01:40:50;;;;;;;;;;;;;;;23.14;65.48;97964.16;5020370;28;19936;-61
2022/05/16 01:43:18;;;;;;;;;;;;;;;23.11;65.83;97962.13;5020217;28;19921;-60
2022/05/16 01:45:44;;;;;;;;;;;;;;;23.12;65.79;97955.53;5017425;28;19929;-61
2022/05/16 01:48:11;;;;;;;;;;;;;;;23.04;65.97;97964.63;5016744;28;20237;-61
2022/05/16 01:50:38;;;;;;;;;;;;;;;23.02;66.12;97956.00;5018633;28;20340;-61
2022/05/16 01:53:05;;;;;;;;;;;;;;;23.05;66.19;97958.06;5020190;28;19981;-60
2022/05/16 01:55:31;;;;;;;;;;;;;;;23.01;66.21;97952.50;5019142;28;19951;-61
2022/05/16 01:57:59;;;;;;;;;;;;;;;22.97;66.65;97951.59;5016996;28;20025;-61
2022/05/16 02:00:25;;;;;;;;;;;;;;;22.96;66.68;97957.38;5016777;28;19993;-60
2022/05/16 02:02:51;;;;;;;;;;;;;;;23.01;66.64;97954.41;5020006;28;19985;-60
2022/05/16 02:05:20;;;;;;;;;;;;;;;23.00;66.65;97947.38;5020186;28;19994;-61
2022/05/16 02:07:46;;;;;;;;;;;;;;;23.02;66.76;97947.84;5016769;28;19994;-60
2022/05/16 02:10:15;;;;;;;;;;;;;;;22.92;66.77;97949.09;5016417;28;19930;-61
2022/05/16 02:12:42;;;;;;;;;;;;;;;22.91;67.09;97933.09;5014980;28;19968;-61
2022/05/16 02:15:12;;;;;;;;;;;;;;;22.86;67.78;97942.31;5019847;28;19929;-61
2022/05/16 02:17:38;;;;;;;;;;;;;;;22.83;67.61;97940.25;5017756;28;19925;-60
2022/05/16 02:20:05;;;;;;;;;;;;;;;22.73;68.14;97950.81;5016230;28;19965;-60
2022/05/16 02:25:16;;;;;;;;;;;;;;;22.77;68.60;97944.34;5019285;28;19926;-61
2022/05/16 02:27:43;;;;;;;;;;;;;;;22.74;68.65;97942.31;5016696;28;19930;-61
2022/05/16 02:30:11;;;;;;;;;;;;;;;22.77;68.67;97940.81;5015831;28;19926;-60
2022/05/16 02:32:38;;;;;;;;;;;;;;;22.71;68.94;97943.00;5017711;28;19995;-61
2022/05/16 02:35:04;;;;;;;;;;;;;;;22.66;68.91;97936.97;5019085;28;20012;-60
2022/05/16 02:37:31;;;;;;;;;;;;;;;22.68;69.28;97938.22;5018291;28;19984;-61
2022/05/16 02:39:57;;;;;;;;;;;;;;;22.61;69.52;97948.84;5016498;28;19926;-61
2022/05/16 02:42:23;;;;;;;;;;;;;;;22.62;69.64;97944.22;5016153;28;19965;-60
2022/05/16 02:44:52;;;;;;;;;;;;;;;22.61;69.57;97937.97;5008089;28;20040;-61
2022/05/16 02:47:21;;;;;;;;;;;;;;;22.58;70.13;97944.88;5015649;28;19933;-61
2022/05/16 02:49:47;;;;;;;;;;;;;;;22.57;69.86;97937.84;5018579;28;19925;-60
2022/05/16 02:52:14;;;;;;;;;;;;;;;22.53;70.16;97934.22;5019466;28;19989;-60
2022/05/16 02:54:40;;;;;;;;;;;;;;;22.50;70.39;97929.44;5017088;28;19928;-61
2022/05/16 02:57:08;;;;;;;;;;;;;;;22.51;70.53;97933.75;5016200;28;19993;-61
2022/05/16 02:59:34;;;;;;;;;;;;;;;22.53;70.30;97942.38;5017233;28;19977;-61
2022/05/16 03:02:01;;;;;;;;;;;;;;;22.49;70.57;97946.94;5019475;28;19926;-61
2022/05/16 03:04:29;;;;;;;;;;;;;;;22.56;70.13;97952.59;5018946;28;20008;-60
2022/05/16 03:06:55;;;;;;;;;;;;;;;22.45;70.81;97953.38;5016080;28;19926;-60
2022/05/16 03:09:25;;;;;;;;;;;;;;;22.47;70.81;97954.63;5015629;28;19957;-60
2022/05/16 03:11:52;;;;;;;;;;;;;;;22.47;70.71;97960.06;5007993;28;19926;-61
2022/05/16 03:14:18;;;;;;;;;;;;;;;22.46;70.80;97958.50;5015878;28;19994;-60
2022/05/16 03:16:45;;;;;;;;;;;;;;;22.40;70.89;97948.97;5018392;28;19960;-60
2022/05/16 03:19:11;;;;;;;;;;;;;;;22.38;71.29;97944.97;5018908;28;19932;-60
2022/05/16 03:21:39;;;;;;;;;;;;;;;22.37;71.12;97949.63;5016815;28;20020;-61
2022/05/16 03:24:06;;;;;;;;;;;;;;;22.36;71.01;97941.81;5015597;28;20009;-61
2022/05/16 03:26:33;;;;;;;;;;;;;;;22.35;71.03;97941.00;5016632;28;19965;-61
2022/05/16 03:28:59;;;;;;;;;;;;;;;22.37;71.11;97946.13;5018881;28;19985;-61
2022/05/16 03:31:25;;;;;;;;;;;;;;;22.36;71.23;97947.25;5018445;28;19967;-61
2022/05/16 03:33:52;;;;;;;;;;;;;;;22.34;71.19;97953.03;5015439;28;19947;-61
2022/05/16 03:36:18;;;;;;;;;;;;;;;22.35;71.37;97956.53;5015240;28;19979;-61
2022/05/16 03:41:30;;;;;;;;;;;;;;;22.29;71.25;97953.25;5017726;28;19984;-60
2022/05/16 03:43:56;;;;;;;;;;;;;;;22.24;71.34;97945.31;5015152;28;20005;-60
2022/05/16 03:46:24;;;;;;;;;;;;;;;22.24;71.65;97947.22;5015226;28;19926;-60
2022/05/16 03:48:50;;;;;;;;;;;;;;;22.25;71.62;97960.47;5007179;28;19943;-60
2022/05/16 03:51:16;;;;;;;;;;;;;;;22.22;71.62;97955.72;5015070;28;19964;-60
2022/05/16 03:53:46;;;;;;;;;;;;;;;22.23;71.60;97970.91;5017835;28;19926;-61
2022/05/16 03:56:14;;;;;;;;;;;;;;;22.20;71.94;97976.22;5018685;28;20263;-61
2022/05/16 03:58:40;;;;;;;;;;;;;;;22.20;71.78;97971.59;5016761;28;19956;-61
2022/05/16 04:01:08;;;;;;;;;;;;;;;22.21;71.83;97975.91;5018922;28;19985;-60
2022/05/16 04:03:35;;;;;;;;;;;;;;;22.18;71.82;97973.88;5020215;28;19936;-60
2022/05/16 04:06:02;;;;;;;;;;;;;;;22.11;72.01;97968.16;5021799;28;19925;-61
2022/05/16 04:08:29;;;;;;;;;;;;;;;22.22;71.55;97974.75;5020891;28;19948;-60
2022/05/16 04:10:55;;;;;;;;;;;;;;;22.15;71.56;97985.41;5018842;28;19940;-60
2022/05/16 04:13:23;;;;;;;;;;;;;;;22.18;71.52;97986.66;5021186;28;20615;-60
2022/05/16 04:15:49;;;;;;;;;;;;;;;22.14;71.49;97986.53;5010889;28;19989;-61
2022/05/16 04:18:16;;;;;;;;;;;;;;;22.18;71.11;97983.94;5018557;28;19968;-61
2022/05/16 04:20:42;;;;;;;;;;;;;;;22.22;70.84;97984.88;5021138;28;19965;-65
2022/05/16 04:23:09;;;;;;;;;;;;;;;22.15;71.07;97979.97;5021958;28;19933;-61
2022/05/16 04:25:37;;;;;;;;;;;;;;;22.13;71.04;97971.34;5020221;28;19925;-61
2022/05/16 04:28:04;;;;;;;;;;;;;;;22.11;70.95;97972.81;5018386;28;19936;-61
2022/05/16 04:30:32;;;;;;;;;;;;;;;22.06;71.63;97971.88;5018963;28;19951;-61
2022/05/16 04:32:59;;;;;;;;;;;;;;;22.15;71.16;97985.41;5022063;28;20389;-60
2022/05/16 04:35:25;;;;;;;;;;;;;;;22.18;70.79;97979.31;5021664;28;19952;-60
2022/05/16 04:37:52;;;;;;;;;;;;;;;21.90;73.37;97986.47;5018450;28;20029;-60
2022/05/16 04:40:19;;;;;;;;;;;;;;;21.81;74.77;97991.16;5018512;28;19992;-61
2022/05/16 04:42:46;;;;;;;;;;;;;;;21.87;74.28;97995.25;5020756;28;20013;-65
2022/05/16 04:45:15;;;;;;;;;;;;;;;21.91;74.18;98004.38;5021622;28;19964;-61
2022/05/16 04:47:44;;;;;;;;;;;;;;;21.79;75.05;97993.41;5018883;28;19937;-61
2022/05/16 04:50:11;;;;;;;;;;;;;;;21.62;76.11;97996.28;5017535;28;19957;-60
2022/05/16 04:52:37;;;;;;;;;;;;;;;21.59;76.34;97999.66;5019475;28;19932;-60
2022/05/16 04:55:04;;;;;;;;;;;;;;;21.79;75.56;98010.50;5020923;28;19956;-60
2022/05/16 04:57:31;;;;;;;;;;;;;;;21.87;74.67;98011.56;5019912;28;19926;-60
2022/05/16 04:59:57;;;;;;;;;;;;;;;21.81;75.29;98007.47;5017696;28;19926;-60
2022/05/16 05:02:23;;;;;;;;;;;;;;;21.49;77.24;98001.66;5018129;28;19999;-60
2022/05/16 05:04:51;;;;;;;;;;;;;;;21.57;77.09;98015.50;5010012;28;19991;-60
2022/05/16 05:07:17;;;;;;;;;;;;;;;21.71;76.36;98021.47;5017937;28;19985;-60
2022/05/16 05:15:13;;;;;;;;;;;;;;;21.20;81.08;98009.06;5021017;28;19973;-60
2022/05/16 05:17:40;;;;;;;;;;;;;;;21.18;81.31;98017.53;5018848;28;19985;-60
2022/05/16 05:20:13;;;;;;;;;;;;;;;21.52;79.02;98019.22;5017615;28;19925;-60
2022/05/16 05:22:39;;;;;;;;;;;;;;;21.23;80.73;98022.75;5019729;28;19965;-60
2022/05/16 05:25:06;;;;;;;;;;;;;;;21.38;79.74;98027.63;5020777;28;19997;-60
2022/05/16 05:27:33;;;;;;;;;;;;;;;21.53;78.92;98024.34;5019776;28;19925;-61
2022/05/16 05:29:59;;;;;;;;;;;;;;;21.64;77.90;98011.13;5017670;28;19926;-61
2022/05/16 05:32:25;;;;;;;;;;;;;;;21.23;80.29;98009.19;5017659;28;19976;-60
2022/05/16 05:34:52;;;;;;;;;;;;;;;21.32;79.68;98004.47;5020856;28;19992;-61
2022/05/16 05:37:19;;;;;;;;;;;;;;;21.13;81.00;98008.78;5020863;28;19926;-61
2022/05/16 05:39:46;;;;;;;;;;;;;;;21.60;78.28;98007.47;5017821;28;19993;-60
2022/05/16 05:42:12;;;;;;;;;;;;;;;21.95;76.55;98010.72;5017325;28;19926;-61
2022/05/16 05:44:38;;;;;;;;;;;;;;;21.97;75.38;97998.38;5019143;28;20441;-61
2022/05/16 05:47:05;;;;;;;;;;;;;;;22.21;74.14;98007.75;5020622;28;20016;-60
2022/05/16 05:49:31;;;;;;;;;;;;;;;22.32;73.43;98009.69;5019387;28;19937;-60
2022/05/16 05:51:59;;;;;;;;;;;;;;;22.35;73.00;98002.78;5017214;28;19926;-60
2022/05/16 05:54:26;;;;;;;;;;;;;;;22.42;72.19;98006.56;5017374;28;19985;-60
2022/05/16 05:56:53;;;;;;;;;;;;;;;22.48;72.16;97991.59;5020440;28;19960;-60
2022/05/16 05:59:20;;;;;;;;;;;;;;;22.38;73.25;98000.19;5020402;28;19926;-61
2022/05/16 06:01:47;;;;;;;;;;;;;;;22.33;73.93;97991.47;5017468;28;19929;-60
2022/05/16 06:04:13;;;;;;;;;;;;;;;22.13;75.59;97992.31;5016838;28;19965;-60
2022/05/16 06:06:40;;;;;;;;;;;;;;;22.03;76.52;97991.59;5016506;28;19932;-61
2022/05/16 06:09:06;;;;;;;;;;;;;;;21.93;77.62;97993.94;5018855;28;19932;-60
2022/05/16 06:11:34;;;;;;;;;;;;;;;21.99;77.59;98001.56;5017898;28;19998;-61
2022/05/16 06:14:00;;;;;;;;;;;;;;;22.27;76.04;97999.03;5015669;28;20036;-61
2022/05/16 06:16:27;;;;;;;;;;;;;;;22.42;75.63;98005.75;5019925;28;19943;-61
2022/05/16 06:18:53;;;;;;;;;;;;;;;22.49;74.91;97998.63;5016804;28;19926;-60
2022/05/16 06:21:19;;;;;;;;;;;;;;;22.58;74.54;98003.97;5016842;28;19997;-61
2022/05/16 06:23:46;;;;;;;;;;;;;;;22.72;74.29;98003.66;5019285;28;20002;-60
2022/05/16 06:26:12;;;;;;;;;;;;;;;22.57;75.27;97997.72;5019736;28;19925;-60
2022/05/16 06:28:40;;;;;;;;;;;;;;;22.70;74.62;98008.66;5017930;28;19926;-61
2022/05/16 06:31:06;;;;;;;;;;;;;;;22.77;74.58;98006.19;5016682;28;19930;-60
2022/05/16 06:33:35;;;;;;;;;;;;;;;22.97;73.84;98011.50;5016195;28;19930;-60
2022/05/16 06:36:02;;;;;;;;;;;;;;;22.58;76.77;98007.50;5014348;28;19932;-61
2022/05/16 06:38:29;;;;;;;;;;;;;;;22.38;78.76;98002.13;5015642;28;19955;-61
2022/05/16 06:40:56;;;;;;;;;;;;;;;22.50;78.65;97997.47;5011362;28;20003;-60
2022/05/16 06:43:23;;;;;;;;;;;;;;;22.73;77.69;98005.25;5015547;28;19925;-61
2022/05/16 06:45:54;;;;;;;;;;;;;;;22.10;82.49;97999.22;5003726;28;19921;-60
2022/05/16 06:48:20;;;;;;;;;;;;;;;22.14;82.85;98000.13;5019847;28;19957;-60
2022/05/16 06:50:48;;;;;;;;;;;;;;;22.29;83.09;98007.66;5016472;28;19932;-61
2022/05/16 06:53:16;;;;;;;;;;;;;;;22.12;85.42;98010.56;5016600;28;20020;-60
2022/05/16 06:55:43;;;;;;;;;;;;;;;21.71;87.93;98014.09;5019083;28;19960;-60
2022/05/16 06:58:09;;;;;;;;;;;;;;;21.65;90.11;98012.72;5019732;28;20024;-61
2022/05/16 07:00:36;;;;;;;;;;;;;;;21.58;90.53;98017.09;5013730;28;19926;-61
2022/05/16 07:03:04;;;;;;;;;;;;;;;20.93;95.08;98023.88;5019786;28;19989;-60
2022/05/16 07:05:30;;;;;;;;;;;;;;;20.61;99.52;98010.94;5018663;28;19963;-60
2022/05/16 07:07:57;;;;;;;;;;;;;;;20.39;100.00;98020.09;5015976;28;19926;-60
2022/05/16 07:10:23;;;;;;;;;;;;;;;20.12;99.89;98025.84;5015761;28;19936;-61
2022/05/16 07:12:50;;;;;;;;;;;;;;;20.25;99.78;98016.75;5005673;28;19996;-60
2022/05/16 07:15:16;;;;;;;;;;;;;;;20.99;93.18;98023.34;5019316;28;20665;-60
2022/05/16 07:17:43;;;;;;;;;;;;;;;21.36;89.88;98026.34;5017136;28;19926;-60
2022/05/16 07:20:11;;;;;;;;;;;;;;;21.89;87.25;98023.72;5022042;28;19926;-60
2022/05/16 07:22:41;;;;;;;;;;;;;;;22.00;86.07;98026.84;5017527;28;19996;-60
2022/05/16 07:25:07;;;;;;;;;;;;;;;22.25;85.13;98030.44;5016129;28;19933;-60
2022/05/16 07:30:18;;;;;;;;;;;;;;;21.31;89.77;98027.34;5019306;28;19971;-60
2022/05/16 07:32:45;;;;;;;;;;;;;;;21.71;87.78;98037.78;5016860;28;19983;-61
2022/05/16 07:35:15;;;;;;;;;;;;;;;21.84;85.48;98034.00;5021007;28;19925;-60
2022/05/16 07:37:41;;;;;;;;;;;;;;;21.88;85.66;98034.94;5024849;28;19933;-60
2022/05/16 07:40:09;;;;;;;;;;;;;;;22.29;82.83;98036.78;5025856;28;19926;-60
2022/05/16 07:42:36;;;;;;;;;;;;;;;22.45;80.76;98035.81;5020244;28;19964;-60
2022/05/16 07:45:03;;;;;;;;;;;;;;;22.56;80.05;98047.84;5025850;28;19981;-60
2022/05/16 07:47:31;;;;;;;;;;;;;;;22.49;79.73;98044.91;5025175;28;20020;-61
2022/05/16 07:49:58;;;;;;;;;;;;;;;22.58;81.07;98048.31;5022088;28;19926;-61
2022/05/16 07:52:26;;;;;;;;;;;;;;;22.92;79.59;98046.34;5022185;28;19984;-60
2022/05/16 07:54:52;;;;;;;;;;;;;;;22.81;79.22;98056.09;5014361;28;19981;-60
2022/05/16 07:57:19;;;;;;;;;;;;;;;22.86;79.05;98050.44;5022015;28;19932;-61
2022/05/16 07:59:46;;;;;;;;;;;;;;;22.96;78.95;98053.47;5025023;28;19926;-59
2022/05/16 08:02:13;;;;;;;;;;;;;;;23.19;78.51;98050.31;5025202;28;19925;-60
2022/05/16 08:04:39;;;;;;;;;;;;;;;22.69;77.87;98037.81;5023308;28;20379;-61
2022/05/16 08:07:06;;;;;;;;;;;;;;;22.59;80.03;98044.44;5021969;28;20001;-61
2022/05/16 08:12:23;;;;;;;;;;;;;;;22.19;83.46;98051.59;5020689;28;19951;-60
2022/05/16 08:14:49;;;;;;;;;;;;;;;22.32;83.57;98042.34;5025143;28;19925;-61
2022/05/16 08:17:15;;;;;;;;;;;;;;;22.64;83.41;98056.25;5025084;28;19925;-61
2022/05/16 08:19:41;;;;;;;;;;;;;;;22.76;81.15;98059.03;5022898;28;19943;-61
2022/05/16 08:22:08;;;;;;;;;;;;;;;22.34;82.99;98056.44;5021744;28;19989;-60
2022/05/16 08:24:36;;;;;;;;;;;;;;;22.19;83.98;98054.31;5022850;28;19921;-60
2022/05/16 08:27:03;;;;;;;;;;;;;;;22.32;84.15;98055.97;5025160;28;19932;-60
2022/05/16 08:29:29;;;;;;;;;;;;;;;22.50;82.53;98070.97;5024151;28;19929;-60
2022/05/16 08:31:56;;;;;;;;;;;;;;;22.37;82.87;98072.09;5021718;28;19929;-61
2022/05/16 08:34:23;;;;;;;;;;;;;;;22.56;83.16;98082.47;5021608;28;19926;-61
2022/05/16 08:42:20;;;;;;;;;;;;;;;21.75;89.58;98085.72;5021342;28;20365;-61
2022/05/16 08:44:51;;;;;;;;;;;;;;;21.96;88.78;98099.34;5024287;28;19926;-61
2022/05/16 08:47:24;;;;;;;;;;;;;;;22.31;87.31;98092.44;5021550;28;19969;-62
2022/05/16 08:49:53;;;;;;;;;;;;;;;22.37;87.76;98093.88;5009785;28;19932;-60
2022/05/16 08:52:26;;;;;;;;;;;;;;;22.31;89.72;98091.69;5018150;28;19949;-60
2022/05/16 08:54:57;;;;;;;;;;;;;;;22.32;89.12;98088.59;5010519;28;19926;-61
2022/05/16 08:57:30;;;;;;;;;;;;;;;22.64;87.82;98080.75;5018024;28;19978;-62
2022/05/16 09:00:01;;;;;;;;;;;;;;;22.89;88.78;98080.50;5011091;28;19948;-61
2022/05/16 09:02:30;;;;;;;;;;;;;;;22.87;88.54;98087.44;5018139;28;19981;-60
2022/05/16 09:05:00;;;;;;;;;;;;;;;22.66;88.85;98086.69;5021368;28;19930;-61
2022/05/16 09:07:29;;;;;;;;;;;;;;;22.47;90.65;98071.66;5020873;28;19949;-60
2022/05/16 09:09:59;;;;;;;;;;;;;;;22.53;91.10;98078.47;5017820;28;19926;-60
2022/05/16 09:12:30;;;;;;;;;;;;;;;22.63;91.15;98082.69;5017857;28;19989;-60
2022/05/16 09:15:03;;;;;;;;;;;;;;;22.60;91.07;98083.34;5021200;28;19982;-60
2022/05/16 09:17:36;;;;;;;;;;;;;;;22.70;89.93;98087.59;5020385;28;19985;-60
2022/05/16 09:20:10;;;;;;;;;;;;;;;22.85;88.94;98097.84;5017630;28;19926;-61
2022/05/16 09:22:41;;;;;;;;;;;;;;;22.90;89.32;98097.66;5019202;28;19969;-61
2022/05/16 09:25:11;;;;;;;;;;;;;;;23.25;86.89;98103.44;5020862;28;19964;-60
2022/05/16 09:30:28;;;;;;;;;;;;;;;23.52;84.26;98106.28;5017460;28;19989;-60
2022/05/16 09:33:00;;;;;;;;;;;;;;;23.28;85.96;98102.75;5009956;28;20021;-60
2022/05/16 09:35:32;;;;;;;;;;;;;;;23.06;87.28;98101.28;5017670;28;19930;-61
2022/05/16 09:37:59;;;;;;;;;;;;;;;23.23;86.85;98090.16;5020861;28;19989;-61
2022/05/16 09:40:34;;;;;;;;;;;;;;;23.47;87.49;98095.63;5020557;28;19947;-61
2022/05/16 09:43:06;;;;;;;;;;;;;;;23.63;86.33;98087.53;5016874;28;19933;-60
2022/05/16 09:45:33;;;;;;;;;;;;;;;23.63;85.94;98085.63;5019664;28;19925;-60
2022/05/16 09:47:59;;;;;;;;;;;;;;;23.81;84.88;98079.88;5017374;28;19922;-62
2022/05/16 09:50:27;;;;;;;;;;;;;;;23.77;83.67;98079.00;5016922;28;19944;-60
2022/05/16 09:53:11;;;;;;;;;;;;;;;23.49;85.83;98074.25;5020714;28;19934;-61
2022/05/16 09:55:44;;;;;;;;;;;;;;;23.65;85.30;98071.63;5018824;28;19929;-61
2022/05/16 09:58:16;;;;;;;;;;;;;;;23.78;86.41;98080.56;5016753;28;19981;-61
2022/05/16 10:00:44;;;;;;;;;;;;;;;23.88;85.82;98080.91;5002223;28;19965;-61
2022/05/16 10:03:20;;;;;;;;;;;;;;;23.76;87.05;98077.41;5020339;28;19951;-61
2022/05/16 10:05:48;;;;;;;;;;;;;;;23.85;86.28;98091.69;5017507;28;19993;-61
2022/05/16 10:08:23;;;;;;;;;;;;;;;24.14;85.11;98096.84;5017074;28;19925;-61
2022/05/16 10:10:49;;;;;;;;;;;;;;;24.07;83.81;98097.44;5020177;28;19961;-60
2022/05/16 10:13:18;;;;;;;;;;;;;;;23.80;82.87;98098.19;5020227;28;19940;-60
2022/05/16 10:15:47;;;;;;;;;;;;;;;23.72;81.84;98095.59;5017566;28;19932;-60
2022/05/16 10:18:17;;;;;;;;;;;;;;;23.75;83.56;98098.44;5016688;28;19926;-61
2022/05/16 10:20:46;;;;;;;;;;;;;;;23.69;82.58;98090.81;5019420;28;19933;-60
2022/05/16 10:23:14;;;;;;;;;;;;;;;23.85;81.18;98097.16;5020183;28;19936;-61
2022/05/16 10:25:43;;;;;;;;;;;;;;;23.97;78.92;98097.91;5000699;28;19930;-62
2022/05/16 10:28:12;;;;;;;;;;;;;;;23.90;79.46;98099.63;5016555;28;19945;-60
2022/05/16 10:33:27;;;;;;;;;;;;;;;23.88;80.33;98110.91;5019868;28;19930;-60
2022/05/16 10:35:56;;;;;;;;;;;;;;;23.94;80.79;98098.63;5009062;28;19926;-61
2022/05/16 10:38:25;;;;;;;;;;;;;;;24.15;78.18;98093.78;5016573;28;19936;-61
2022/05/16 10:40:54;;;;;;;;;;;;;;;24.44;77.21;98091.84;5008798;28;20069;-61
2022/05/16 10:43:29;;;;;;;;;;;;;;;24.00;78.56;98088.25;5018603;28;19932;-62
2022/05/16 10:46:01;;;;;;;;;;;;;;;24.14;78.79;98089.47;5009100;28;19964;-61
2022/05/16 10:48:31;;;;;;;;;;;;;;;24.35;78.00;98086.56;5016592;28;19929;-62
2022/05/16 10:51:02;;;;;;;;;;;;;;;24.14;80.93;98091.41;5019427;28;19925;-61
2022/05/16 10:53:31;;;;;;;;;;;;;;;24.36;79.36;98088.13;5019173;28;19925;-61
2022/05/16 10:56:03;;;;;;;;;;;;;;;24.10;81.40;98094.03;5016572;28;19926;-61
2022/05/16 10:58:39;;;;;;;;;;;;;;;24.35;80.03;98099.41;5016595;28;19930;-61
2022/05/16 11:01:11;;;;;;;;;;;;;;;24.24;80.24;98103.75;5019416;28;19925;-61
2022/05/16 11:04:03;;;;;;;;;;;;;;;24.02;80.45;98100.41;5017647;28;19932;-61
2022/05/16 11:06:48;;;;;;;;;;;;;;;23.51;83.59;98106.66;5016388;28;19932;-61
2022/05/16 11:09:18;;;;;;;;;;;;;;;24.11;80.79;98097.53;5018168;28;19926;-61
2022/05/16 11:11:50;;;;;;;;;;;;;;;24.31;78.75;98101.22;5016698;28;19925;-60
2022/05/16 11:14:21;;;;;;;;;;;;;;;23.89;83.46;98100.78;5011083;28;19926;-61
2022/05/16 11:16:53;;;;;;;;;;;;;;;23.61;84.69;98093.31;5019071;28;19985;-61
2022/05/16 11:19:24;;;;;;;;;;;;;;;23.91;81.59;98099.31;5019103;28;19932;-60
2022/05/16 11:21:55;;;;;;;;;;;;;;;23.95;81.89;98097.44;5007850;28;19986;-60
2022/05/16 11:24:28;;;;;;;;;;;;;;;24.33;79.06;98091.56;5015458;28;20384;-61
2022/05/16 11:27:00;;;;;;;;;;;;;;;24.20;79.06;98091.97;5008470;28;20012;-62
2022/05/16 11:29:31;;;;;;;;;;;;;;;24.10;81.03;98085.84;5015694;28;19997;-61
2022/05/16 11:32:05;;;;;;;;;;;;;;;24.04;81.50;98091.88;5019184;28;19975;-61
2022/05/16 11:34:40;;;;;;;;;;;;;;;23.88;82.97;98093.75;5018316;28;19932;-61
2022/05/16 11:37:13;;;;;;;;;;;;;;;23.98;82.91;98098.72;5015875;28;19926;-61
2022/05/16 11:39:41;;;;;;;;;;;;;;;24.04;81.02;98091.88;5017483;28;19948;-61
2022/05/16 11:42:17;;;;;;;;;;;;;;;24.10;82.80;98079.56;5016041;28;19949;-61
2022/05/16 11:44:49;;;;;;;;;;;;;;;24.32;80.80;98081.00;5018164;28;19925;-60
2022/05/16 11:47:20;;;;;;;;;;;;;;;24.20;82.66;98070.13;5018836;28;20190;-61
2022/05/16 11:49:49;;;;;;;;;;;;;;;24.24;81.83;98071.00;5015692;28;19926;-60
2022/05/16 11:52:23;;;;;;;;;;;;;;;24.45;79.99;98075.09;5015532;28;19993;-60
2022/05/16 11:54:53;;;;;;;;;;;;;;;24.42;79.73;98067.63;5018659;28;19925;-61
2022/05/16 12:03:13;;;;;;;;;;;;;;;24.70;80.80;98062.09;5008407;28;20130;-61
2022/05/16 12:05:42;;;;;;;;;;;;;;;24.88;80.44;98054.41;5017257;28;19965;-62
2022/05/16 12:08:16;;;;;;;;;;;;;;;24.63;80.46;98054.53;5018835;28;19926;-62
2022/05/16 12:10:55;;;;;;;;;;;;;;;24.67;81.47;98052.69;5016382;28;19926;-61
2022/05/16 12:13:27;;;;;;;;;;;;;;;24.53;83.44;98044.13;5017355;28;19933;-61
2022/05/16 12:16:12;;;;;;;;;;;;;;;24.69;82.74;98041.44;5007689;28;19925;-62
2022/05/16 12:18:43;;;;;;;;;;;;;;;24.82;81.67;98051.13;5017014;28;19932;-61
2022/05/16 12:21:12;;;;;;;;;;;;;;;24.11;85.90;98037.50;5020662;28;19926;-61
2022/05/16 12:23:55;;;;;;;;;;;;;;;24.04;87.72;98029.13;5020488;28;19959;-62
2022/05/16 12:26:30;;;;;;;;;;;;;;;24.54;85.01;98023.09;5018728;28;19965;-63
2022/05/16 12:29:13;;;;;;;;;;;;;;;24.73;83.71;98025.91;5011369;28;19925;-62
2022/05/16 12:31:41;;;;;;;;;;;;;;;24.67;84.24;98025.38;5020551;28;19932;-63
2022/05/16 12:34:10;;;;;;;;;;;;;;;24.74;84.02;98024.75;5021579;28;19996;-62
2022/05/16 12:36:37;;;;;;;;;;;;;;;24.81;83.38;98018.69;5020177;28;19925;-61
2022/05/16 12:39:07;;;;;;;;;;;;;;;24.82;84.40;98020.31;5018441;28;19973;-62
2022/05/16 12:41:51;;;;;;;;;;;;;;;24.90;84.39;98019.31;5019334;28;19933;-61
2022/05/16 12:44:30;;;;;;;;;;;;;;;24.75;86.36;98012.69;5012753;28;19929;-61
2022/05/16 12:47:11;;;;;;;;;;;;;;;24.58;89.78;98021.22;5010971;28;19932;-61
2022/05/16 12:49:53;;;;;;;;;;;;;;;24.23;91.57;98018.38;5019630;28;19932;-61
2022/05/16 12:52:30;;;;;;;;;;;;;;;24.56;89.61;98015.34;5021636;28;19925;-61
2022/05/16 12:55:09;;;;;;;;;;;;;;;24.49;90.88;98024.13;5010971;28;19990;-61
2022/05/16 12:57:53;;;;;;;;;;;;;;;23.88;95.33;98018.16;5019295;28;20038;-61
2022/05/16 13:00:21;;;;;;;;;;;;;;;24.20;93.60;98024.53;5021222;28;19981;-60
2022/05/16 13:02:54;;;;;;;;;;;;;;;24.52;90.35;98014.44;5001242;28;19925;-61
2022/05/16 13:05:26;;;;;;;;;;;;;;;24.52;90.73;98015.25;5017760;28;19922;-61
2022/05/16 13:07:58;;;;;;;;;;;;;;;24.59;92.04;98004.50;5010163;28;19926;-61
2022/05/16 13:10:30;;;;;;;;;;;;;;;24.46;93.28;98005.72;5017622;28;20249;-61
2022/05/16 13:12:59;;;;;;;;;;;;;;;24.03;100.00;98011.16;5009492;28;19926;-62
2022/05/16 13:15:30;;;;;;;;;;;;;;;23.85;100.00;98007.16;5021148;28;19968;-61
2022/05/16 13:17:58;;;;;;;;;;;;;;;23.80;100.00;98010.91;5017953;28;19991;-62
2022/05/16 13:20:31;;;;;;;;;;;;;;;23.74;100.00;98016.97;5017607;28;20036;-62
2022/05/16 13:22:59;;;;;;;;;;;;;;;23.68;100.00;98013.69;5010792;28;19926;-61
2022/05/16 13:25:26;;;;;;;;;;;;;;;24.02;100.00;98012.28;5017479;28;19926;-62
2022/05/16 13:30:37;;;;;;;;;;;;;;;23.64;100.00;98015.53;5019270;28;20301;-61
2022/05/16 13:33:03;;;;;;;;;;;;;;;24.03;100.00;98009.22;5016669;28;19931;-62